Time;durP1;ratioP1;P1;durP2;ratioP2;P2;SDS_P1;SDS_P2;PMS_P1;PMS_P2;Temp;Humidity;BMP_temperature;BMP_pressure;BME280_temperature;BME280_humidity;BME280_pressure;Samples;Min_cycle;Max_cycle;Signal;HPM_P1;HPM_P2
2022/01/29 00:01:30;;;;;;;8.90;5.80;;;;;;;;;;4952837;28;20530;-74
2022/01/29 00:03:56;;;;;;;10.50;6.63;;;;;;;;;;4972588;28;20448;-74
2022/01/29 00:06:22;;;;;;;8.30;6.37;;;;;;;;;;4951637;28;20481;-74
2022/01/29 00:08:48;;;;;;;11.50;6.37;;;;;;;;;;4972176;28;20520;-73
2022/01/29 00:11:16;;;;;;;10.60;6.47;;;;;;;;;;4953261;28;20464;-74
2022/01/29 00:13:42;;;;;;;10.90;6.40;;;;;;;;;;4977466;28;20441;-74
2022/01/29 00:16:08;;;;;;;12.93;7.43;;;;;;;;;;4968716;28;20439;-73
2022/01/29 00:18:35;;;;;;;13.97;7.60;;;;;;;;;;4975044;28;20997;-73
2022/01/29 00:21:01;;;;;;;13.37;7.47;;;;;;;;;;4932392;28;20771;-73
2022/01/29 00:23:27;;;;;;;11.97;7.50;;;;;;;;;;4972726;28;21223;-73
2022/01/29 00:25:53;;;;;;;10.37;6.47;;;;;;;;;;4970079;28;20540;-73
2022/01/29 00:28:19;;;;;;;8.47;6.47;;;;;;;;;;4971904;28;20441;-74
2022/01/29 00:30:45;;;;;;;9.07;6.73;;;;;;;;;;4965335;28;20442;-74
2022/01/29 00:33:11;;;;;;;9.30;6.60;;;;;;;;;;4970389;28;20491;-75
2022/01/29 00:35:37;;;;;;;9.00;5.77;;;;;;;;;;4954233;28;21028;-74
2022/01/29 00:38:04;;;;;;;14.60;6.93;;;;;;;;;;4974928;28;20425;-75
2022/01/29 00:40:31;;;;;;;6.13;5.53;;;;;;;;;;4950332;28;20504;-73
2022/01/29 00:42:57;;;;;;;8.53;5.77;;;;;;;;;;4975586;28;20496;-74
2022/01/29 00:45:23;;;;;;;11.53;6.47;;;;;;;;;;4966314;28;20584;-74
2022/01/29 00:47:49;;;;;;;11.33;6.10;;;;;;;;;;4976800;28;20500;-74
2022/01/29 00:50:15;;;;;;;10.90;6.63;;;;;;;;;;4972271;28;20430;-73
2022/01/29 00:52:41;;;;;;;8.00;6.23;;;;;;;;;;4974224;28;20449;-75
2022/01/29 00:55:08;;;;;;;8.97;6.90;;;;;;;;;;4934492;28;20442;-74
2022/01/29 00:57:37;;;;;;;9.67;6.67;;;;;;;;;;4960328;28;20437;-74
2022/01/29 01:00:03;;;;;;;10.80;6.23;;;;;;;;;;4958069;28;20446;-74
2022/01/29 01:02:29;;;;;;;8.47;6.00;;;;;;;;;;4974243;28;20469;-74
2022/01/29 01:04:55;;;;;;;8.07;5.53;;;;;;;;;;4968534;28;20453;-74
2022/01/29 01:07:21;;;;;;;10.70;6.17;;;;;;;;;;4975876;28;20535;-74
2022/01/29 01:09:47;;;;;;;10.23;5.73;;;;;;;;;;4943507;28;20507;-74
2022/01/29 01:12:13;;;;;;;8.33;5.80;;;;;;;;;;4970594;28;20449;-74
2022/01/29 01:14:39;;;;;;;10.50;5.60;;;;;;;;;;4957263;28;20445;-74
2022/01/29 01:17:05;;;;;;;10.07;5.77;;;;;;;;;;4973369;28;20965;-74
2022/01/29 01:19:31;;;;;;;7.47;5.40;;;;;;;;;;4971414;28;21147;-74
2022/01/29 01:21:57;;;;;;;7.10;5.90;;;;;;;;;;4974926;28;20536;-74
2022/01/29 01:24:24;;;;;;;7.17;5.50;;;;;;;;;;4973744;28;20445;-74
2022/01/29 01:26:50;;;;;;;8.20;5.57;;;;;;;;;;4977633;28;20613;-73
2022/01/29 01:29:16;;;;;;;12.20;5.40;;;;;;;;;;4944547;28;20450;-74
2022/01/29 01:31:44;;;;;;;6.83;5.93;;;;;;;;;;4986027;28;20564;-73
2022/01/29 01:34:10;;;;;;;8.30;5.20;;;;;;;;;;4985581;28;20474;-74
2022/01/29 01:36:44;;;;;;;7.10;5.00;;;;;;;;;;4990601;28;20444;-73
2022/01/29 01:39:12;;;;;;;7.67;5.47;;;;;;;;;;4980456;28;20421;-74
2022/01/29 01:41:41;;;;;;;5.43;4.20;;;;;;;;;;4987227;28;20555;-74
2022/01/29 01:44:10;;;;;;;6.70;4.30;;;;;;;;;;4966443;28;20441;-74
2022/01/29 01:46:36;;;;;;;8.37;5.10;;;;;;;;;;4988499;28;20798;-74
2022/01/29 01:49:01;;;;;;;5.20;4.40;;;;;;;;;;4985601;28;20456;-74
2022/01/29 01:51:27;;;;;;;6.90;5.03;;;;;;;;;;4991508;28;20446;-73
2022/01/29 01:53:53;;;;;;;8.63;5.73;;;;;;;;;;4981365;28;20433;-75
2022/01/29 01:56:19;;;;;;;7.00;5.73;;;;;;;;;;4978871;28;20450;-75
2022/01/29 01:58:46;;;;;;;6.77;4.90;;;;;;;;;;4947906;28;20453;-75
2022/01/29 02:01:12;;;;;;;7.43;5.30;;;;;;;;;;4974867;28;20453;-75
2022/01/29 02:03:38;;;;;;;5.73;4.27;;;;;;;;;;4983636;28;20505;-75
2022/01/29 02:06:04;;;;;;;6.73;4.40;;;;;;;;;;4977797;28;20571;-73
2022/01/29 02:08:31;;;;;;;6.80;5.13;;;;;;;;;;4978865;28;20488;-74
2022/01/29 02:11:03;;;;;;;7.03;4.37;;;;;;;;;;4978774;28;20516;-74
2022/01/29 02:13:29;;;;;;;6.10;4.10;;;;;;;;;;4984939;28;20456;-74
2022/01/29 02:15:55;;;;;;;9.70;5.10;;;;;;;;;;4958241;28;20425;-74
2022/01/29 02:18:21;;;;;;;13.53;5.40;;;;;;;;;;4985151;28;20456;-74
2022/01/29 02:20:47;;;;;;;9.07;5.23;;;;;;;;;;4975137;28;20425;-74
2022/01/29 02:23:13;;;;;;;7.10;6.00;;;;;;;;;;4978561;28;20457;-74
2022/01/29 02:25:40;;;;;;;7.40;5.30;;;;;;;;;;4982396;28;20511;-74
2022/01/29 02:28:08;;;;;;;5.23;4.70;;;;;;;;;;4978090;28;20431;-74
2022/01/29 02:30:35;;;;;;;13.87;6.50;;;;;;;;;;4937412;28;20451;-74
2022/01/29 02:33:04;;;;;;;8.00;5.00;;;;;;;;;;4978531;28;20448;-73
2022/01/29 02:35:30;;;;;;;10.00;5.27;;;;;;;;;;4973144;28;20488;-74
2022/01/29 02:37:56;;;;;;;6.67;4.80;;;;;;;;;;4979345;28;20736;-75
2022/01/29 02:40:22;;;;;;;5.67;4.93;;;;;;;;;;4978855;28;20464;-74
2022/01/29 02:42:49;;;;;;;6.87;5.00;;;;;;;;;;4976773;28;20438;-74
2022/01/29 02:45:15;;;;;;;6.47;5.47;;;;;;;;;;4971366;28;20484;-74
2022/01/29 02:47:41;;;;;;;5.40;4.77;;;;;;;;;;4971555;28;20496;-73
2022/01/29 02:50:08;;;;;;;7.90;5.97;;;;;;;;;;4956352;28;20854;-74
2022/01/29 02:52:35;;;;;;;8.40;5.27;;;;;;;;;;4980622;28;20430;-73
2022/01/29 02:55:01;;;;;;;6.70;5.30;;;;;;;;;;4978324;28;21016;-74
2022/01/29 02:57:27;;;;;;;7.63;4.83;;;;;;;;;;4976780;28;20449;-73
2022/01/29 02:59:55;;;;;;;8.90;5.00;;;;;;;;;;4969573;28;20508;-74
2022/01/29 03:02:21;;;;;;;10.67;5.43;;;;;;;;;;4979146;28;20922;-74
2022/01/29 03:04:47;;;;;;;5.40;4.90;;;;;;;;;;4940769;28;20433;-74
2022/01/29 03:07:13;;;;;;;6.13;5.27;;;;;;;;;;4982949;28;20520;-73
2022/01/29 03:09:39;;;;;;;7.17;4.83;;;;;;;;;;4977690;28;20966;-74
2022/01/29 03:12:05;;;;;;;7.80;5.20;;;;;;;;;;4968800;28;20477;-75
2022/01/29 03:14:31;;;;;;;6.27;4.53;;;;;;;;;;4976211;28;20959;-74
2022/01/29 03:16:57;;;;;;;9.80;4.57;;;;;;;;;;4974764;28;20967;-73
2022/01/29 03:19:23;;;;;;;7.00;4.70;;;;;;;;;;4981390;28;20434;-74
2022/01/29 03:21:49;;;;;;;7.07;4.80;;;;;;;;;;4954884;28;20472;-73
2022/01/29 03:24:15;;;;;;;6.10;3.97;;;;;;;;;;4975660;28;20537;-73
2022/01/29 03:26:41;;;;;;;7.93;4.67;;;;;;;;;;4975604;28;20493;-74
2022/01/29 03:29:07;;;;;;;7.10;4.20;;;;;;;;;;4975296;28;20853;-74
2022/01/29 03:31:32;;;;;;;4.53;4.03;;;;;;;;;;4956242;28;20444;-73
2022/01/29 03:33:58;;;;;;;6.93;4.47;;;;;;;;;;4987430;28;20441;-74
2022/01/29 03:36:25;;;;;;;4.90;3.60;;;;;;;;;;4935910;28;20532;-74
2022/01/29 03:38:51;;;;;;;6.20;3.53;;;;;;;;;;4982066;28;20497;-74
2022/01/29 03:41:17;;;;;;;6.47;4.20;;;;;;;;;;4975435;28;20441;-73
2022/01/29 03:43:47;;;;;;;7.83;4.60;;;;;;;;;;4979579;28;20517;-74
2022/01/29 03:46:13;;;;;;;5.70;4.47;;;;;;;;;;4964613;28;20484;-74
2022/01/29 03:48:39;;;;;;;6.43;3.90;;;;;;;;;;4975092;28;20425;-74
2022/01/29 03:51:05;;;;;;;5.93;4.30;;;;;;;;;;4957838;28;20459;-73
2022/01/29 03:53:31;;;;;;;5.67;4.00;;;;;;;;;;4971445;28;20437;-73
2022/01/29 03:55:57;;;;;;;8.80;4.90;;;;;;;;;;4977575;28;20936;-73
2022/01/29 03:58:23;;;;;;;6.07;4.23;;;;;;;;;;4981432;28;20479;-74
2022/01/29 04:00:49;;;;;;;4.90;4.03;;;;;;;;;;4957243;28;20456;-74
2022/01/29 04:03:15;;;;;;;7.57;4.67;;;;;;;;;;4980313;28;20450;-73
2022/01/29 04:05:41;;;;;;;5.37;4.10;;;;;;;;;;4972644;28;20473;-73
2022/01/29 04:08:14;;;;;;;5.97;4.00;;;;;;;;;;4970032;28;20514;-74
2022/01/29 04:10:40;;;;;;;5.27;3.73;;;;;;;;;;4931838;28;20963;-74
2022/01/29 04:13:09;;;;;;;5.10;3.60;;;;;;;;;;4977850;28;20473;-74
2022/01/29 04:15:35;;;;;;;5.63;4.03;;;;;;;;;;4972927;28;20781;-74
2022/01/29 04:18:01;;;;;;;9.33;3.70;;;;;;;;;;4981931;28;20433;-73
2022/01/29 04:20:27;;;;;;;5.73;3.67;;;;;;;;;;4956768;28;20437;-73
2022/01/29 04:22:53;;;;;;;4.20;3.63;;;;;;;;;;4957463;28;20457;-73
2022/01/29 04:25:19;;;;;;;4.30;3.27;;;;;;;;;;4958291;28;21045;-74
2022/01/29 04:27:47;;;;;;;5.27;3.53;;;;;;;;;;4975146;28;20532;-74
2022/01/29 04:30:30;;;;;;;4.80;3.03;;;;;;;;;;4969606;28;20441;-73
2022/01/29 04:33:15;;;;;;;9.67;3.90;;;;;;;;;;4973051;28;20520;-73
2022/01/29 04:35:41;;;;;;;3.10;2.87;;;;;;;;;;4978311;28;20941;-74
2022/01/29 04:38:07;;;;;;;4.07;3.63;;;;;;;;;;4975227;28;20434;-74
2022/01/29 04:40:35;;;;;;;4.20;3.53;;;;;;;;;;4974256;28;20441;-74
2022/01/29 04:43:01;;;;;;;5.00;3.97;;;;;;;;;;4977556;28;20510;-72
2022/01/29 04:45:27;;;;;;;7.30;3.63;;;;;;;;;;4937144;28;20970;-73
2022/01/29 04:47:52;;;;;;;4.60;3.30;;;;;;;;;;4971699;28;20449;-74
2022/01/29 04:50:19;;;;;;;6.03;3.47;;;;;;;;;;4971784;28;20453;-74
2022/01/29 04:52:44;;;;;;;3.50;3.20;;;;;;;;;;4978632;28;20447;-74
2022/01/29 04:55:10;;;;;;;4.10;2.97;;;;;;;;;;4949362;28;20441;-74
2022/01/29 04:57:37;;;;;;;6.77;3.57;;;;;;;;;;4977856;28;20445;-74
2022/01/29 05:00:06;;;;;;;6.50;3.60;;;;;;;;;;4972986;28;20434;-74
2022/01/29 05:02:32;;;;;;;5.13;3.13;;;;;;;;;;4980162;28;20452;-72
2022/01/29 05:04:58;;;;;;;5.30;3.00;;;;;;;;;;4965940;28;20463;-73
2022/01/29 05:07:24;;;;;;;5.13;3.40;;;;;;;;;;4984381;28;20535;-73
2022/01/29 05:09:50;;;;;;;6.00;4.90;;;;;;;;;;4970235;28;20444;-71
2022/01/29 05:12:23;;;;;;;6.30;5.33;;;;;;;;;;4979494;28;20433;-74
2022/01/29 05:15:06;;;;;;;6.67;4.13;;;;;;;;;;4973612;28;20477;-73
2022/01/29 05:28:30;;;;;;;7.97;4.87;;;;;;;;;;4978416;28;20607;-73
2022/01/29 05:30:56;;;;;;;10.53;6.30;;;;;;;;;;4955996;28;20437;-74
2022/01/29 05:33:22;;;;;;;12.60;5.07;;;;;;;;;;4981663;28;20599;-74
2022/01/29 05:35:48;;;;;;;10.73;6.60;;;;;;;;;;4956089;28;20456;-73
2022/01/29 05:38:14;;;;;;;10.23;6.50;;;;;;;;;;4953947;28;20475;-73
2022/01/29 05:40:40;;;;;;;9.67;6.10;;;;;;;;;;4983941;28;20442;-74
2022/01/29 05:43:06;;;;;;;14.53;7.30;;;;;;;;;;4975706;28;20855;-73
2022/01/29 05:45:32;;;;;;;8.13;6.20;;;;;;;;;;4969471;28;20515;-74
2022/01/29 05:47:58;;;;;;;17.67;7.23;;;;;;;;;;4971474;28;20437;-73
2022/01/29 05:50:24;;;;;;;8.60;6.50;;;;;;;;;;4976415;28;20590;-73
2022/01/29 05:52:50;;;;;;;10.10;7.20;;;;;;;;;;4960364;28;21216;-75
2022/01/29 05:55:16;;;;;;;11.13;7.50;;;;;;;;;;4959874;28;20458;-75
2022/01/29 05:57:42;;;;;;;12.73;6.77;;;;;;;;;;4976274;28;21152;-75
2022/01/29 06:00:08;;;;;;;10.67;7.27;;;;;;;;;;4967021;28;20486;-75
2022/01/29 06:02:35;;;;;;;12.93;7.57;;;;;;;;;;4962181;28;20561;-74
2022/01/29 06:05:01;;;;;;;8.00;6.40;;;;;;;;;;4950945;28;20485;-73
2022/01/29 06:07:27;;;;;;;10.07;7.20;;;;;;;;;;4980241;28;20493;-74
2022/01/29 06:09:53;;;;;;;9.10;6.70;;;;;;;;;;4954793;28;20442;-74
2022/01/29 06:12:19;;;;;;;12.20;7.40;;;;;;;;;;4975322;28;20441;-74
2022/01/29 06:14:44;;;;;;;20.93;8.70;;;;;;;;;;4969849;28;20463;-72
2022/01/29 06:17:11;;;;;;;13.40;6.77;;;;;;;;;;4976660;28;20441;-73
2022/01/29 06:19:37;;;;;;;9.60;7.03;;;;;;;;;;4979340;28;21004;-73
2022/01/29 06:22:09;;;;;;;8.37;6.07;;;;;;;;;;4975318;28;20799;-73
2022/01/29 06:24:35;;;;;;;8.53;6.10;;;;;;;;;;4940336;28;21005;-73
2022/01/29 06:27:01;;;;;;;11.40;7.87;;;;;;;;;;4981335;28;20568;-74
2022/01/29 06:29:27;;;;;;;9.90;6.93;;;;;;;;;;4977970;28;21191;-74
2022/01/29 06:31:52;;;;;;;14.43;7.83;;;;;;;;;;4984990;28;20472;-74
2022/01/29 06:34:18;;;;;;;12.43;8.80;;;;;;;;;;4977374;28;20429;-74
2022/01/29 06:36:44;;;;;;;9.77;7.30;;;;;;;;;;4981500;28;20516;-74
2022/01/29 06:39:10;;;;;;;11.50;8.57;;;;;;;;;;4956825;28;20456;-73
2022/01/29 06:41:36;;;;;;;9.37;8.37;;;;;;;;;;4984789;28;20461;-74
2022/01/29 06:44:02;;;;;;;15.50;8.47;;;;;;;;;;4975870;28;20516;-72
2022/01/29 06:46:28;;;;;;;11.30;7.70;;;;;;;;;;4982511;28;20482;-72
2022/01/29 06:48:54;;;;;;;17.03;9.10;;;;;;;;;;4973135;28;20441;-72
2022/01/29 06:51:20;;;;;;;14.40;7.70;;;;;;;;;;4982117;28;20446;-73
2022/01/29 06:53:46;;;;;;;13.90;7.50;;;;;;;;;;4970028;28;20819;-72
2022/01/29 06:56:12;;;;;;;11.87;8.07;;;;;;;;;;4980143;28;20453;-72
2022/01/29 06:58:38;;;;;;;11.13;7.73;;;;;;;;;;4936237;28;20941;-72
2022/01/29 07:01:04;;;;;;;14.50;9.07;;;;;;;;;;4973349;28;20935;-71
2022/01/29 07:03:30;;;;;;;10.77;8.63;;;;;;;;;;4972064;28;20425;-72
2022/01/29 07:05:56;;;;;;;14.40;10.17;;;;;;;;;;4978482;28;20560;-72
2022/01/29 07:08:22;;;;;;;14.30;9.80;;;;;;;;;;4974488;28;20448;-72
2022/01/29 07:10:50;;;;;;;12.63;8.93;;;;;;;;;;4975915;28;20468;-73
2022/01/29 07:13:16;;;;;;;15.00;8.97;;;;;;;;;;4954251;28;20436;-71
2022/01/29 07:15:42;;;;;;;12.63;9.10;;;;;;;;;;4980978;28;20446;-72
2022/01/29 07:18:08;;;;;;;10.43;7.17;;;;;;;;;;4975557;28;20453;-74
2022/01/29 07:20:34;;;;;;;11.80;7.70;;;;;;;;;;4980053;28;20441;-72
2022/01/29 07:22:59;;;;;;;11.77;6.67;;;;;;;;;;4973502;28;20429;-72
2022/01/29 07:25:26;;;;;;;11.67;7.60;;;;;;;;;;4972373;28;20497;-75
2022/01/29 07:27:51;;;;;;;7.67;6.30;;;;;;;;;;4950476;28;20457;-75
2022/01/29 07:30:17;;;;;;;8.60;6.03;;;;;;;;;;4973645;28;21431;-74
2022/01/29 07:32:44;;;;;;;9.30;5.87;;;;;;;;;;4964264;28;20551;-76
2022/01/29 07:35:10;;;;;;;6.47;4.90;;;;;;;;;;4956511;28;20577;-75
2022/01/29 07:37:36;;;;;;;10.33;5.60;;;;;;;;;;4977559;28;20516;-73
2022/01/29 07:40:02;;;;;;;10.43;6.07;;;;;;;;;;4965805;28;20801;-75
2022/01/29 07:42:28;;;;;;;5.47;4.30;;;;;;;;;;4982035;28;20930;-74
2022/01/29 07:44:54;;;;;;;7.90;5.77;;;;;;;;;;4974615;28;21435;-74
2022/01/29 07:47:21;;;;;;;8.33;5.00;;;;;;;;;;4959513;28;20491;-74
2022/01/29 07:49:46;;;;;;;6.70;5.60;;;;;;;;;;4982056;28;20479;-74
2022/01/29 07:52:13;;;;;;;3.87;3.30;;;;;;;;;;4979553;28;20460;-74
2022/01/29 07:54:38;;;;;;;15.90;4.27;;;;;;;;;;4975758;28;20464;-74
2022/01/29 07:57:05;;;;;;;4.43;3.53;;;;;;;;;;4973414;28;20446;-75
2022/01/29 07:59:31;;;;;;;3.93;2.60;;;;;;;;;;4976564;28;20442;-74
2022/01/29 08:01:56;;;;;;;5.60;3.07;;;;;;;;;;4978574;28;20450;-74
2022/01/29 08:04:24;;;;;;;3.90;3.50;;;;;;;;;;4981996;28;20472;-74
2022/01/29 08:06:50;;;;;;;5.43;3.17;;;;;;;;;;4934647;28;21073;-74
2022/01/29 08:09:16;;;;;;;4.13;2.97;;;;;;;;;;4951287;28;20434;-75
2022/01/29 08:11:42;;;;;;;5.17;3.10;;;;;;;;;;4976504;28;20579;-74
2022/01/29 08:14:09;;;;;;;3.30;2.73;;;;;;;;;;4978021;28;20489;-75
2022/01/29 08:16:35;;;;;;;4.23;2.30;;;;;;;;;;4977408;28;20475;-74
2022/01/29 08:19:01;;;;;;;6.47;2.60;;;;;;;;;;4956830;28;20705;-75
2022/01/29 08:21:27;;;;;;;3.97;2.53;;;;;;;;;;4978797;28;20965;-73
2022/01/29 08:23:53;;;;;;;2.93;2.33;;;;;;;;;;4965314;28;20579;-74
2022/01/29 08:26:19;;;;;;;3.20;2.43;;;;;;;;;;4972096;28;20535;-74
2022/01/29 08:28:45;;;;;;;3.63;2.57;;;;;;;;;;4983883;28;20437;-72
2022/01/29 08:31:11;;;;;;;3.93;3.23;;;;;;;;;;4977526;28;20809;-72
2022/01/29 08:33:38;;;;;;;5.00;2.43;;;;;;;;;;4981276;28;20524;-72
2022/01/29 08:36:04;;;;;;;3.43;2.80;;;;;;;;;;4983246;28;20445;-73
2022/01/29 08:38:30;;;;;;;3.40;2.90;;;;;;;;;;4972712;28;21374;-74
2022/01/29 08:40:58;;;;;;;5.27;3.13;;;;;;;;;;4960045;28;20830;-72
2022/01/29 08:43:24;;;;;;;5.80;3.63;;;;;;;;;;4982281;28;20516;-73
2022/01/29 08:45:51;;;;;;;4.27;2.70;;;;;;;;;;4968948;28;21133;-72
2022/01/29 08:48:17;;;;;;;2.90;2.70;;;;;;;;;;4979315;28;20492;-72
2022/01/29 08:50:43;;;;;;;4.43;3.13;;;;;;;;;;4930343;28;20454;-73
2022/01/29 08:53:09;;;;;;;5.40;3.50;;;;;;;;;;4977559;28;20429;-72
2022/01/29 08:55:38;;;;;;;3.00;2.70;;;;;;;;;;4971866;28;21116;-72
2022/01/29 08:58:10;;;;;;;5.73;3.13;;;;;;;;;;4972059;28;20456;-72
2022/01/29 09:00:37;;;;;;;6.10;3.87;;;;;;;;;;4967023;28;20449;-75
2022/01/29 09:03:03;;;;;;;4.30;3.10;;;;;;;;;;4971236;28;20441;-72
2022/01/29 09:05:29;;;;;;;4.60;2.77;;;;;;;;;;4980556;28;20468;-71
2022/01/29 09:07:55;;;;;;;4.23;3.70;;;;;;;;;;4979633;28;20444;-72
2022/01/29 09:10:21;;;;;;;4.07;3.30;;;;;;;;;;4965651;28;20484;-73
2022/01/29 09:12:47;;;;;;;5.50;3.70;;;;;;;;;;4957359;28;20437;-72
2022/01/29 09:15:13;;;;;;;4.53;3.00;;;;;;;;;;4978162;28;20498;-73
2022/01/29 09:17:40;;;;;;;4.60;2.20;;;;;;;;;;4972086;28;20810;-73
2022/01/29 09:20:08;;;;;;;5.03;3.57;;;;;;;;;;4959721;28;20456;-73
2022/01/29 09:22:36;;;;;;;4.80;3.60;;;;;;;;;;4962578;28;20436;-72
2022/01/29 09:25:02;;;;;;;5.23;3.23;;;;;;;;;;4971370;28;20995;-73
2022/01/29 09:27:28;;;;;;;6.90;3.10;;;;;;;;;;4979369;28;20473;-72
2022/01/29 09:29:54;;;;;;;5.30;3.63;;;;;;;;;;4968226;28;20461;-73
2022/01/29 09:32:20;;;;;;;4.90;3.30;;;;;;;;;;4964232;28;20476;-73
2022/01/29 09:34:46;;;;;;;8.40;4.23;;;;;;;;;;4982132;28;20432;-73
2022/01/29 09:37:13;;;;;;;5.13;3.63;;;;;;;;;;4980711;28;21815;-73
2022/01/29 09:39:39;;;;;;;4.10;3.30;;;;;;;;;;4977492;28;20477;-73
2022/01/29 09:42:06;;;;;;;6.80;3.53;;;;;;;;;;4970164;28;20468;-73
2022/01/29 09:44:34;;;;;;;5.50;3.73;;;;;;;;;;4979944;28;20528;-73
2022/01/29 09:47:00;;;;;;;6.70;3.33;;;;;;;;;;4952265;28;20523;-73
2022/01/29 09:49:25;;;;;;;5.30;3.93;;;;;;;;;;4988539;28;20429;-75
2022/01/29 09:51:51;;;;;;;4.43;3.47;;;;;;;;;;4963905;28;20479;-74
2022/01/29 09:54:17;;;;;;;7.30;3.87;;;;;;;;;;4965269;28;20449;-73
2022/01/29 09:56:43;;;;;;;6.97;3.30;;;;;;;;;;4981942;28;20449;-73
2022/01/29 09:59:10;;;;;;;5.20;3.77;;;;;;;;;;4976215;28;20471;-73
2022/01/29 10:01:36;;;;;;;3.97;3.20;;;;;;;;;;4979233;28;20461;-72
2022/01/29 10:04:05;;;;;;;5.80;4.30;;;;;;;;;;4961952;28;20442;-74
2022/01/29 10:06:31;;;;;;;5.30;3.73;;;;;;;;;;4986207;28;20509;-73
2022/01/29 10:08:59;;;;;;;5.17;3.03;;;;;;;;;;4979888;28;20695;-73
2022/01/29 10:11:25;;;;;;;8.73;3.80;;;;;;;;;;4980517;28;20445;-73
2022/01/29 10:13:52;;;;;;;3.37;2.90;;;;;;;;;;4977803;28;20438;-73
2022/01/29 10:16:21;;;;;;;4.27;3.40;;;;;;;;;;4982152;28;20477;-73
2022/01/29 10:18:48;;;;;;;6.33;3.93;;;;;;;;;;4932587;28;20435;-73
2022/01/29 10:21:18;;;;;;;5.87;4.43;;;;;;;;;;4983618;28;20814;-74
2022/01/29 10:23:44;;;;;;;4.23;3.83;;;;;;;;;;4957224;28;20453;-73
2022/01/29 10:26:10;;;;;;;8.60;4.47;;;;;;;;;;4972625;28;20491;-72
2022/01/29 10:28:37;;;;;;;6.47;3.90;;;;;;;;;;4977543;28;20920;-73
2022/01/29 10:31:06;;;;;;;5.40;2.97;;;;;;;;;;4971195;28;20445;-73
2022/01/29 10:33:39;;;;;;;6.63;4.27;;;;;;;;;;4960533;28;20471;-74
2022/01/29 10:36:08;;;;;;;7.07;3.40;;;;;;;;;;4953235;28;20437;-74
2022/01/29 10:38:40;;;;;;;4.87;2.90;;;;;;;;;;4979387;28;20446;-73
2022/01/29 10:41:18;;;;;;;6.03;3.60;;;;;;;;;;4963756;28;20556;-73
2022/01/29 10:44:19;;;;;;;4.50;3.43;;;;;;;;;;4975498;28;20840;-73
2022/01/29 10:46:49;;;;;;;6.40;3.10;;;;;;;;;;4952947;28;20576;-73
2022/01/29 10:49:20;;;;;;;3.83;2.80;;;;;;;;;;4947304;28;21592;-73
2022/01/29 10:51:54;;;;;;;7.40;2.70;;;;;;;;;;4973667;28;20473;-73
2022/01/29 10:54:20;;;;;;;2.70;2.30;;;;;;;;;;4951762;28;20670;-72
2022/01/29 10:56:57;;;;;;;3.53;2.37;;;;;;;;;;4973591;28;20488;-72
2022/01/29 10:59:23;;;;;;;2.60;2.37;;;;;;;;;;4968896;28;20460;-72
2022/01/29 11:01:56;;;;;;;3.20;2.73;;;;;;;;;;4973398;28;20460;-73
2022/01/29 11:04:25;;;;;;;2.40;2.20;;;;;;;;;;4946876;28;20586;-73
2022/01/29 11:06:51;;;;;;;5.87;2.60;;;;;;;;;;4977982;28;22592;-73
2022/01/29 11:09:17;;;;;;;3.87;2.47;;;;;;;;;;4960454;28;20544;-72
2022/01/29 11:11:45;;;;;;;3.97;2.93;;;;;;;;;;4954678;28;20488;-73
2022/01/29 11:14:15;;;;;;;2.90;2.23;;;;;;;;;;4933294;28;20957;-74
2022/01/29 11:16:41;;;;;;;3.90;2.23;;;;;;;;;;4972237;28;20528;-74
2022/01/29 11:19:07;;;;;;;3.80;2.60;;;;;;;;;;4927280;28;21508;-75
2022/01/29 11:21:34;;;;;;;3.37;2.27;;;;;;;;;;4951672;28;20449;-73
2022/01/29 11:24:00;;;;;;;3.53;2.30;;;;;;;;;;4912858;28;20437;-72
2022/01/29 11:26:26;;;;;;;4.83;1.90;;;;;;;;;;4954748;28;20507;-74
2022/01/29 11:29:12;;;;;;;3.30;2.10;;;;;;;;;;4933532;28;20551;-71
2022/01/29 11:31:38;;;;;;;4.03;2.73;;;;;;;;;;4970295;28;20803;-70
2022/01/29 11:34:07;;;;;;;2.37;1.83;;;;;;;;;;4964476;28;20439;-72
2022/01/29 11:36:48;;;;;;;4.10;2.17;;;;;;;;;;4967430;28;20426;-71
2022/01/29 11:39:21;;;;;;;3.60;2.17;;;;;;;;;;4948674;28;20611;-71
2022/01/29 11:42:06;;;;;;;3.30;2.63;;;;;;;;;;4965060;28;20438;-71
2022/01/29 11:44:32;;;;;;;5.20;2.03;;;;;;;;;;4960511;28;20437;-71
2022/01/29 11:47:16;;;;;;;4.10;2.60;;;;;;;;;;4961117;28;20493;-73
2022/01/29 11:49:42;;;;;;;2.73;2.23;;;;;;;;;;4959739;28;20442;-73
2022/01/29 11:52:21;;;;;;;2.93;2.07;;;;;;;;;;4964226;28;20449;-70
2022/01/29 11:55:04;;;;;;;3.13;2.30;;;;;;;;;;4962324;28;20440;-72
2022/01/29 11:57:30;;;;;;;3.03;1.80;;;;;;;;;;4945549;28;20438;-72
2022/01/29 11:59:56;;;;;;;2.07;1.73;;;;;;;;;;4920566;28;21130;-70
2022/01/29 12:02:22;;;;;;;2.17;1.73;;;;;;;;;;4958547;28;20955;-72
2022/01/29 12:04:48;;;;;;;2.63;1.80;;;;;;;;;;4977169;28;21000;-71
2022/01/29 12:07:19;;;;;;;3.73;2.00;;;;;;;;;;4976430;28;21079;-72
2022/01/29 12:09:49;;;;;;;3.27;2.50;;;;;;;;;;4964192;28;20434;-71
2022/01/29 12:12:19;;;;;;;5.30;1.87;;;;;;;;;;4970368;28;23093;-71
2022/01/29 12:14:45;;;;;;;8.67;1.90;;;;;;;;;;4934932;28;20450;-72
2022/01/29 12:17:12;;;;;;;1.70;1.20;;;;;;;;;;4961835;28;20825;-72
2022/01/29 12:19:39;;;;;;;1.97;1.77;;;;;;;;;;4940903;28;20466;-72
2022/01/29 12:22:10;;;;;;;3.03;1.83;;;;;;;;;;4958991;28;20441;-72
2022/01/29 12:24:36;;;;;;;2.73;1.53;;;;;;;;;;4959463;28;20437;-71
2022/01/29 12:27:03;;;;;;;2.60;1.40;;;;;;;;;;4964035;28;20576;-72
2022/01/29 12:29:29;;;;;;;2.87;1.80;;;;;;;;;;4961131;28;20452;-71
2022/01/29 12:31:57;;;;;;;3.60;2.20;;;;;;;;;;4964173;28;20465;-72
2022/01/29 12:34:23;;;;;;;4.93;1.60;;;;;;;;;;4925960;28;20470;-72
2022/01/29 12:36:49;;;;;;;1.63;1.53;;;;;;;;;;4961175;28;20453;-72
2022/01/29 12:39:24;;;;;;;2.20;1.70;;;;;;;;;;4954584;28;20527;-73
2022/01/29 12:42:06;;;;;;;2.57;2.13;;;;;;;;;;4953095;28;20437;-73
2022/01/29 12:44:31;;;;;;;2.30;1.40;;;;;;;;;;4948086;28;21138;-73
2022/01/29 12:46:57;;;;;;;5.03;2.00;;;;;;;;;;4963323;28;20651;-73
2022/01/29 12:49:23;;;;;;;3.90;1.77;;;;;;;;;;4927959;28;20568;-73
2022/01/29 12:51:50;;;;;;;2.67;1.90;;;;;;;;;;4951013;28;20508;-73
2022/01/29 12:54:15;;;;;;;3.20;1.80;;;;;;;;;;4941013;28;20515;-73
2022/01/29 12:56:41;;;;;;;4.47;2.60;;;;;;;;;;4944104;28;20433;-73
2022/01/29 12:59:08;;;;;;;3.00;1.70;;;;;;;;;;4945085;28;20532;-73
2022/01/29 13:01:35;;;;;;;2.50;1.50;;;;;;;;;;4954135;28;20445;-73
2022/01/29 13:04:08;;;;;;;2.53;1.60;;;;;;;;;;4916399;28;20457;-73
2022/01/29 13:06:34;;;;;;;3.73;1.83;;;;;;;;;;4961459;28;20529;-73
2022/01/29 13:09:12;;;;;;;3.40;1.90;;;;;;;;;;4955432;28;20523;-73
2022/01/29 13:11:38;;;;;;;2.47;1.80;;;;;;;;;;4961061;28;20524;-74
2022/01/29 13:14:11;;;;;;;3.70;3.20;;;;;;;;;;4951812;28;21596;-74
2022/01/29 13:16:38;;;;;;;3.63;2.90;;;;;;;;;;4925808;28;20508;-72
2022/01/29 13:19:05;;;;;;;2.60;2.20;;;;;;;;;;4940151;28;20433;-74
2022/01/29 13:21:32;;;;;;;2.90;2.60;;;;;;;;;;4941450;28;20756;-73
2022/01/29 13:23:58;;;;;;;3.90;2.30;;;;;;;;;;4963297;28;20461;-74
2022/01/29 13:26:30;;;;;;;2.43;2.23;;;;;;;;;;4963897;28;20607;-74
2022/01/29 13:29:02;;;;;;;2.67;2.07;;;;;;;;;;4963430;28;20445;-74
2022/01/29 13:31:29;;;;;;;3.80;2.07;;;;;;;;;;4949321;28;20553;-74
2022/01/29 13:33:57;;;;;;;3.27;2.23;;;;;;;;;;4957061;28;20437;-76
2022/01/29 13:36:32;;;;;;;3.30;2.27;;;;;;;;;;4935624;28;20965;-74
2022/01/29 13:39:06;;;;;;;2.80;2.20;;;;;;;;;;4966948;28;20429;-74
2022/01/29 13:41:32;;;;;;;2.33;2.00;;;;;;;;;;4979217;28;21037;-75
2022/01/29 13:44:07;;;;;;;4.00;1.97;;;;;;;;;;4962654;28;20437;-73
2022/01/29 13:46:33;;;;;;;2.80;2.03;;;;;;;;;;4966645;28;20487;-74
2022/01/29 13:48:59;;;;;;;5.10;2.97;;;;;;;;;;4968118;28;20433;-74
2022/01/29 13:51:29;;;;;;;3.13;2.57;;;;;;;;;;4951860;28;20786;-73
2022/01/29 13:53:58;;;;;;;7.67;2.40;;;;;;;;;;4971014;28;20485;-74
2022/01/29 13:56:24;;;;;;;3.27;2.10;;;;;;;;;;4964850;28;21089;-74
2022/01/29 13:58:53;;;;;;;3.90;2.30;;;;;;;;;;4961820;28;20473;-74
2022/01/29 14:01:39;;;;;;;3.40;1.57;;;;;;;;;;4947541;28;20524;-72
2022/01/29 14:04:06;;;;;;;2.90;1.93;;;;;;;;;;4930380;28;20881;-75
2022/01/29 14:06:35;;;;;;;2.13;1.43;;;;;;;;;;4947147;28;20477;-74
2022/01/29 14:12:04;;;;;;;2.50;2.30;;;;;;;;;;4966797;28;20449;-74
2022/01/29 14:14:31;;;;;;;4.03;2.40;;;;;;;;;;4952997;28;20777;-73
2022/01/29 14:16:59;;;;;;;2.90;1.87;;;;;;;;;;4968984;28;20532;-73
2022/01/29 14:19:27;;;;;;;2.43;1.67;;;;;;;;;;4962594;28;20439;-72
2022/01/29 14:21:54;;;;;;;2.13;1.70;;;;;;;;;;4963988;28;20867;-74
2022/01/29 14:24:20;;;;;;;2.47;1.60;;;;;;;;;;4953853;28;20707;-75
2022/01/29 14:26:46;;;;;;;1.80;1.60;;;;;;;;;;4969319;28;20934;-72
2022/01/29 14:29:12;;;;;;;2.70;1.97;;;;;;;;;;4981739;28;20451;-73
2022/01/29 14:31:38;;;;;;;3.13;2.10;;;;;;;;;;4962239;28;20446;-73
2022/01/29 14:34:05;;;;;;;3.20;2.13;;;;;;;;;;4946589;28;20496;-73
2022/01/29 14:36:34;;;;;;;3.50;1.70;;;;;;;;;;4932385;28;21647;-74
2022/01/29 14:39:00;;;;;;;3.27;2.37;;;;;;;;;;4955630;28;20446;-73
2022/01/29 14:41:26;;;;;;;2.57;1.60;;;;;;;;;;4938485;28;20927;-73
2022/01/29 14:43:52;;;;;;;2.73;1.70;;;;;;;;;;4947939;28;20449;-73
2022/01/29 14:46:18;;;;;;;2.40;1.67;;;;;;;;;;4954808;28;20566;-72
2022/01/29 14:48:44;;;;;;;2.13;1.43;;;;;;;;;;4945944;28;20499;-73
2022/01/29 14:51:11;;;;;;;2.60;1.67;;;;;;;;;;4961905;28;20495;-73
2022/01/29 14:53:37;;;;;;;1.97;1.30;;;;;;;;;;4940702;28;20426;-72
2022/01/29 14:56:04;;;;;;;3.53;1.67;;;;;;;;;;4969585;28;20439;-73